createdAt,value
2023-04-30T00:00:16.454Z,12.74
2023-04-30T00:02:43.067Z,12.69
2023-04-30T00:05:09.921Z,12.65
2023-04-30T00:07:36.469Z,12.61
2023-04-30T00:10:03.214Z,12.58
2023-04-30T00:12:29.776Z,12.57
2023-04-30T00:14:56.514Z,12.54
2023-04-30T00:17:23.618Z,12.52
2023-04-30T00:19:50.928Z,12.49
2023-04-30T00:22:17.774Z,12.48
2023-04-30T00:24:44.391Z,12.45
2023-04-30T00:27:11.008Z,12.43
2023-04-30T00:29:37.822Z,12.38
2023-04-30T00:32:04.591Z,12.34
2023-04-30T00:34:31.440Z,12.32
2023-04-30T00:36:58.036Z,12.30
2023-04-30T00:39:24.645Z,12.29
2023-04-30T00:41:51.225Z,12.28
2023-04-30T00:44:17.777Z,12.26
2023-04-30T00:46:44.299Z,12.27
2023-04-30T00:49:10.910Z,12.25
2023-04-30T00:51:42.120Z,12.26
2023-04-30T00:54:08.802Z,12.25
2023-04-30T00:56:36.189Z,12.26
2023-04-30T00:59:02.912Z,12.29
2023-04-30T01:01:29.862Z,12.28
2023-04-30T01:03:56.619Z,12.28
2023-04-30T01:06:24.000Z,12.27
2023-04-30T01:08:50.876Z,12.26
2023-04-30T01:11:37.733Z,12.24
2023-04-30T01:14:38.551Z,12.22
2023-04-30T01:17:38.851Z,12.21
2023-04-30T01:20:09.197Z,12.25
2023-04-30T01:22:46.286Z,12.25
2023-04-30T01:25:40.677Z,12.23
2023-04-30T01:28:09.841Z,12.29
2023-04-30T01:30:38.053Z,12.30
2023-04-30T01:33:04.662Z,12.30
2023-04-30T01:35:37.005Z,12.30
2023-04-30T01:38:45.282Z,12.27
2023-04-30T01:41:34.674Z,12.25
2023-04-30T01:44:31.957Z,12.23
2023-04-30T01:47:07.853Z,12.18
2023-04-30T01:50:00.828Z,12.14
2023-04-30T01:52:41.226Z,12.08
2023-04-30T01:55:14.087Z,12.08
2023-04-30T01:57:45.815Z,12.08
2023-04-30T02:00:13.487Z,12.06
2023-04-30T02:02:40.466Z,12.06
2023-04-30T02:05:07.336Z,12.06
2023-04-30T02:07:40.580Z,12.08
2023-04-30T02:10:08.356Z,12.11
2023-04-30T02:12:35.705Z,12.10
2023-04-30T02:15:05.697Z,12.10
2023-04-30T02:17:32.516Z,12.07
2023-04-30T02:19:59.899Z,12.06
2023-04-30T02:22:26.947Z,12.06
2023-04-30T02:24:55.594Z,12.05
2023-04-30T02:27:24.765Z,12.07
2023-04-30T02:29:52.458Z,12.07
2023-04-30T02:32:19.710Z,12.08
2023-04-30T02:34:46.323Z,12.10
2023-04-30T02:37:12.864Z,12.09
2023-04-30T02:39:39.429Z,12.08
2023-04-30T02:42:07.004Z,12.08
2023-04-30T02:44:34.312Z,12.08
2023-04-30T02:47:01.693Z,12.06
2023-04-30T02:49:28.784Z,12.07
2023-04-30T02:51:55.619Z,12.09
2023-04-30T02:54:22.190Z,12.07
2023-04-30T02:56:48.733Z,12.06
2023-04-30T02:59:15.305Z,12.06
2023-04-30T03:01:41.986Z,12.09
2023-04-30T03:04:08.621Z,12.07
2023-04-30T03:06:35.347Z,12.06
2023-04-30T03:09:01.893Z,12.09
2023-04-30T03:11:28.412Z,12.08
2023-04-30T03:13:55.128Z,12.07
2023-04-30T03:16:22.303Z,12.02
2023-04-30T03:18:49.730Z,12.02
2023-04-30T03:21:16.353Z,11.98
2023-04-30T03:23:43.020Z,11.97
2023-04-30T03:26:09.639Z,11.97
2023-04-30T03:28:36.220Z,11.92
2023-04-30T03:31:05.473Z,11.88
2023-04-30T03:33:33.360Z,11.85
2023-04-30T03:35:59.952Z,11.82
2023-04-30T03:38:26.545Z,11.78
2023-04-30T03:40:53.264Z,11.77
2023-04-30T03:43:19.877Z,11.77
2023-04-30T03:45:46.536Z,11.76
2023-04-30T03:48:13.458Z,11.75
2023-04-30T03:50:40.040Z,11.74
2023-04-30T03:53:06.543Z,11.74
2023-04-30T03:55:34.361Z,11.72
2023-04-30T03:58:01.037Z,11.69
2023-04-30T04:00:27.595Z,11.67
2023-04-30T04:02:55.268Z,11.65
2023-04-30T04:05:21.839Z,11.65
2023-04-30T04:07:48.368Z,11.60
2023-04-30T04:10:14.973Z,11.58
2023-04-30T04:12:41.570Z,11.56
2023-04-30T04:15:08.984Z,11.55
2023-04-30T04:17:35.672Z,11.49
2023-04-30T04:20:02.250Z,11.44
2023-04-30T04:22:28.841Z,11.42
2023-04-30T04:24:55.419Z,11.41
2023-04-30T04:27:21.930Z,11.39
2023-04-30T04:29:48.723Z,11.36
2023-04-30T04:32:15.835Z,11.32
2023-04-30T04:34:43.679Z,11.28
2023-04-30T04:37:10.264Z,11.25
2023-04-30T04:39:37.401Z,11.23
2023-04-30T04:42:05.011Z,11.20
2023-04-30T04:44:32.412Z,11.16
2023-04-30T04:46:59.015Z,11.16
2023-04-30T04:49:25.727Z,11.12
2023-04-30T04:51:52.316Z,11.07
2023-04-30T04:54:18.935Z,11.05
2023-04-30T04:56:45.546Z,11.11
2023-04-30T04:59:12.612Z,11.51
2023-04-30T05:01:39.214Z,11.97
2023-04-30T05:04:05.973Z,12.35
2023-04-30T05:06:33.109Z,12.59
2023-04-30T05:08:59.792Z,12.82
2023-04-30T05:11:26.397Z,13.13
2023-04-30T05:13:52.938Z,13.41
2023-04-30T05:16:19.533Z,13.56
2023-04-30T05:18:46.126Z,13.68
2023-04-30T05:21:12.646Z,13.73
2023-04-30T05:23:39.183Z,13.82
2023-04-30T05:26:05.993Z,13.75
2023-04-30T05:28:33.272Z,13.74
2023-04-30T05:30:59.853Z,13.61
2023-04-30T05:33:26.561Z,13.62
2023-04-30T05:35:53.206Z,13.67
2023-04-30T05:38:19.746Z,13.70
2023-04-30T05:40:46.424Z,13.74
2023-04-30T05:43:13.028Z,13.89
2023-04-30T05:45:39.660Z,13.77
2023-04-30T05:48:06.380Z,13.74
2023-04-30T05:50:32.941Z,13.84
2023-04-30T05:52:59.486Z,13.99
2023-04-30T05:55:26.127Z,14.18
2023-04-30T05:57:52.681Z,14.31
2023-04-30T06:00:19.493Z,14.47
2023-04-30T06:02:46.039Z,14.64
2023-04-30T06:05:15.314Z,14.77
2023-04-30T06:07:42.689Z,14.85
2023-04-30T06:10:10.215Z,14.92
2023-04-30T06:12:36.807Z,14.89
2023-04-30T06:15:03.809Z,14.82
2023-04-30T06:17:30.384Z,14.66
2023-04-30T06:19:59.003Z,14.67
2023-04-30T06:22:25.559Z,14.54
2023-04-30T06:24:52.125Z,14.40
2023-04-30T06:27:18.654Z,14.29
2023-04-30T06:29:45.380Z,14.24
2023-04-30T06:32:11.901Z,14.18
2023-04-30T06:34:38.938Z,14.17
2023-04-30T06:37:05.958Z,14.17
2023-04-30T06:39:32.566Z,14.20
2023-04-30T06:41:59.048Z,14.24
2023-04-30T06:44:25.539Z,14.27
2023-04-30T06:46:52.106Z,14.33
2023-04-30T06:49:18.713Z,14.43
2023-04-30T06:51:45.289Z,14.48
2023-04-30T06:54:11.860Z,14.53
2023-04-30T06:56:38.400Z,14.60
2023-04-30T06:59:05.137Z,14.70
2023-04-30T07:01:31.758Z,14.89
2023-04-30T07:03:59.202Z,14.95
2023-04-30T07:06:25.950Z,14.99
2023-04-30T07:08:52.545Z,14.98
2023-04-30T07:11:19.103Z,14.97
2023-04-30T07:13:45.634Z,15.02
2023-04-30T07:16:12.226Z,15.10
2023-04-30T07:18:39.634Z,15.16
2023-04-30T07:21:06.424Z,15.23
2023-04-30T07:23:32.975Z,15.25
2023-04-30T07:25:59.574Z,15.32
2023-04-30T07:28:26.306Z,15.38
2023-04-30T07:30:53.319Z,15.40
2023-04-30T07:33:19.827Z,15.50
2023-04-30T07:35:46.392Z,15.57
2023-04-30T07:38:13.046Z,15.66
2023-04-30T07:40:39.597Z,15.69
2023-04-30T07:43:06.478Z,15.71
2023-04-30T07:45:34.867Z,15.75
2023-04-30T07:48:01.815Z,15.78
2023-04-30T07:50:29.742Z,15.90
2023-04-30T07:52:56.371Z,16.03
2023-04-30T07:55:22.974Z,16.11
2023-04-30T07:57:49.511Z,16.14
2023-04-30T08:00:16.591Z,16.19
2023-04-30T08:02:46.065Z,16.19
2023-04-30T08:05:12.899Z,16.11
2023-04-30T08:07:39.799Z,16.17
2023-04-30T08:10:06.853Z,16.28
2023-04-30T08:12:37.087Z,16.34
2023-04-30T08:15:05.253Z,16.40
2023-04-30T08:17:32.696Z,16.50
2023-04-30T08:19:59.988Z,16.57
2023-04-30T08:22:26.784Z,16.62
2023-04-30T08:24:55.103Z,16.64
2023-04-30T08:27:22.374Z,16.69
2023-04-30T08:29:49.073Z,16.80
2023-04-30T08:32:15.886Z,16.89
2023-04-30T08:34:43.616Z,16.98
2023-04-30T08:37:10.272Z,17.09
2023-04-30T08:39:36.819Z,17.20
2023-04-30T08:42:08.446Z,17.26
2023-04-30T08:44:39.612Z,17.44
2023-04-30T08:47:08.231Z,17.60
2023-04-30T08:49:37.026Z,17.70
2023-04-30T08:52:03.808Z,17.73
2023-04-30T08:54:35.317Z,17.72
2023-04-30T08:57:02.674Z,17.76
2023-04-30T08:59:29.545Z,17.71
2023-04-30T09:01:56.431Z,17.73
2023-04-30T09:04:23.154Z,17.74
2023-04-30T09:06:53.599Z,17.80
2023-04-30T09:09:20.325Z,17.91
2023-04-30T09:11:46.848Z,17.94
2023-04-30T09:14:13.437Z,17.95
2023-04-30T09:16:51.399Z,17.98
2023-04-30T09:19:29.889Z,18.01
2023-04-30T09:21:56.731Z,18.09
2023-04-30T09:24:24.130Z,18.15
2023-04-30T09:26:51.517Z,18.19
2023-04-30T09:29:18.048Z,18.29
2023-04-30T09:31:47.184Z,18.39
2023-04-30T09:34:14.672Z,18.81
2023-04-30T09:36:55.080Z,18.79
2023-04-30T09:39:22.254Z,18.85
2023-04-30T09:41:50.657Z,18.87
2023-04-30T09:44:28.533Z,18.86
2023-04-30T09:46:56.781Z,18.76
2023-04-30T09:49:23.390Z,18.62
2023-04-30T09:52:01.146Z,18.44
2023-04-30T09:54:30.564Z,18.35
2023-04-30T09:57:02.327Z,18.28
2023-04-30T09:59:37.852Z,18.21
2023-04-30T10:02:06.721Z,18.23
2023-04-30T10:04:41.898Z,18.25
2023-04-30T10:07:22.511Z,18.32
2023-04-30T10:09:50.882Z,18.33
2023-04-30T10:12:26.070Z,18.36
2023-04-30T10:15:02.850Z,18.28
2023-04-30T10:17:33.323Z,18.21
2023-04-30T10:20:05.806Z,18.18
2023-04-30T10:22:34.871Z,18.23
2023-04-30T10:25:02.310Z,18.28
2023-04-30T10:27:30.387Z,18.39
2023-04-30T10:29:58.289Z,18.45
2023-04-30T10:32:36.832Z,18.50
2023-04-30T10:35:16.244Z,18.51
2023-04-30T10:38:07.714Z,18.55
2023-04-30T10:40:37.309Z,18.62
2023-04-30T10:43:03.938Z,18.58
2023-04-30T10:45:38.210Z,18.54
2023-04-30T10:48:06.889Z,18.63
2023-04-30T10:50:39.556Z,18.68
2023-04-30T10:53:07.194Z,18.66
2023-04-30T10:55:33.817Z,18.83
2023-04-30T10:58:00.414Z,19.02
2023-04-30T11:00:31.956Z,19.12
2023-04-30T11:03:04.003Z,19.10
2023-04-30T11:05:36.774Z,19.06
2023-04-30T11:08:03.710Z,19.11
2023-04-30T11:10:34.724Z,19.28
2023-04-30T11:13:10.222Z,19.50
2023-04-30T11:15:41.804Z,19.71
2023-04-30T11:18:09.517Z,19.79
2023-04-30T11:20:42.130Z,19.83
2023-04-30T11:23:17.420Z,19.83
2023-04-30T11:25:55.214Z,19.78
2023-04-30T11:28:23.485Z,19.79
2023-04-30T11:30:58.915Z,19.80
2023-04-30T11:33:31.387Z,19.90
2023-04-30T11:35:59.636Z,20.08
2023-04-30T11:38:37.667Z,20.21
2023-04-30T11:41:05.082Z,20.07
2023-04-30T11:43:33.780Z,20.01
2023-04-30T11:46:06.559Z,19.98
2023-04-30T11:48:34.926Z,19.91
2023-04-30T11:51:07.480Z,19.96
2023-04-30T11:53:34.111Z,20.02
2023-04-30T11:56:04.179Z,20.10
2023-04-30T11:58:34.482Z,20.10
2023-04-30T12:01:01.584Z,20.11
2023-04-30T12:03:29.348Z,20.06
2023-04-30T12:05:56.225Z,20.03
2023-04-30T12:08:23.689Z,20.12
2023-04-30T12:10:50.346Z,20.24
2023-04-30T12:13:16.875Z,20.21
2023-04-30T12:15:43.594Z,20.16
2023-04-30T12:18:14.133Z,20.17
2023-04-30T12:20:42.011Z,20.11
2023-04-30T12:23:08.745Z,19.91
2023-04-30T12:25:43.967Z,19.81
2023-04-30T12:28:11.763Z,19.89
2023-04-30T12:30:38.479Z,19.98
2023-04-30T12:33:06.167Z,20.07
2023-04-30T12:35:32.778Z,20.07
2023-04-30T12:38:07.015Z,20.06
2023-04-30T12:40:33.891Z,20.15
2023-04-30T12:43:02.531Z,20.24
2023-04-30T12:45:52.351Z,20.40
2023-04-30T12:48:21.392Z,20.49
2023-04-30T12:51:02.158Z,20.37
2023-04-30T12:53:29.699Z,20.27
2023-04-30T12:56:17.515Z,20.34
2023-04-30T12:58:47.367Z,20.42
2023-04-30T13:01:17.267Z,20.51
2023-04-30T13:03:44.067Z,20.66
2023-04-30T13:06:10.746Z,20.85
2023-04-30T13:08:49.554Z,20.95
2023-04-30T13:11:24.289Z,21.01
2023-04-30T13:13:51.169Z,21.14
2023-04-30T13:16:17.738Z,21.24
2023-04-30T13:18:44.298Z,21.21
2023-04-30T13:21:10.839Z,21.13
2023-04-30T13:23:44.798Z,21.06
2023-04-30T13:26:18.897Z,21.03
2023-04-30T13:28:45.482Z,21.01
2023-04-30T13:31:12.291Z,21.03
2023-04-30T13:33:38.894Z,21.06
2023-04-30T13:36:05.988Z,21.12
2023-04-30T13:38:33.079Z,21.10
2023-04-30T13:40:59.588Z,21.17
2023-04-30T13:43:26.168Z,21.22
2023-04-30T13:45:52.737Z,21.15
2023-04-30T13:48:19.403Z,21.05
2023-04-30T13:50:46.015Z,20.74
2023-04-30T13:53:12.669Z,20.56
2023-04-30T13:55:39.186Z,20.46
2023-04-30T13:58:05.928Z,20.45
2023-04-30T14:00:32.517Z,20.45
2023-04-30T14:02:59.208Z,20.52
2023-04-30T14:05:25.869Z,20.61
2023-04-30T14:07:52.429Z,20.67
2023-04-30T14:10:19.140Z,20.75
2023-04-30T14:12:45.655Z,20.78
2023-04-30T14:15:12.218Z,20.77
2023-04-30T14:17:38.838Z,20.76
2023-04-30T14:20:06.032Z,20.84
2023-04-30T14:22:34.581Z,21.00
2023-04-30T14:25:01.183Z,21.34
2023-04-30T14:27:27.688Z,21.44
2023-04-30T14:29:54.584Z,21.44
2023-04-30T14:32:21.600Z,21.41
2023-04-30T14:34:48.171Z,21.52
2023-04-30T14:37:15.615Z,21.68
2023-04-30T14:39:42.574Z,21.75
2023-04-30T14:42:09.643Z,21.82
2023-04-30T14:44:37.945Z,21.79
2023-04-30T14:47:04.717Z,21.74
2023-04-30T14:49:31.538Z,21.66
2023-04-30T14:51:58.077Z,21.56
2023-04-30T14:54:24.667Z,21.43
2023-04-30T14:56:52.083Z,21.37
2023-04-30T14:59:18.591Z,21.09
2023-04-30T15:01:45.263Z,20.83
2023-04-30T15:04:11.999Z,20.68
2023-04-30T15:06:38.637Z,20.64
2023-04-30T15:09:06.393Z,20.65
2023-04-30T15:11:32.929Z,20.72
2023-04-30T15:13:59.521Z,20.83
2023-04-30T15:16:26.563Z,20.90
2023-04-30T15:18:54.274Z,20.96
2023-04-30T15:21:20.763Z,21.17
2023-04-30T15:23:47.734Z,21.29
2023-04-30T15:26:14.368Z,21.30
2023-04-30T15:28:40.893Z,21.28
2023-04-30T15:31:07.508Z,21.18
2023-04-30T15:33:39.534Z,21.08
2023-04-30T15:36:06.513Z,20.98
2023-04-30T15:38:33.195Z,20.85
2023-04-30T15:40:59.724Z,20.83
2023-04-30T15:43:26.325Z,20.91
2023-04-30T15:45:53.125Z,21.17
2023-04-30T15:48:19.861Z,21.57
2023-04-30T15:50:46.416Z,21.87
2023-04-30T15:53:12.917Z,22.26
2023-04-30T15:55:39.671Z,22.44
2023-04-30T15:58:06.358Z,22.65
2023-04-30T16:00:33.668Z,22.73
2023-04-30T16:03:00.697Z,22.82
2023-04-30T16:05:27.678Z,22.92
2023-04-30T16:07:54.550Z,23.07
2023-04-30T16:10:21.659Z,23.18
2023-04-30T16:12:48.647Z,23.21
2023-04-30T16:15:15.278Z,23.28
2023-04-30T16:17:41.879Z,23.37
2023-04-30T16:20:08.878Z,23.36
2023-04-30T16:22:35.644Z,23.21
2023-04-30T16:25:02.294Z,22.91
2023-04-30T16:27:28.810Z,22.72
2023-04-30T16:29:55.617Z,22.53
2023-04-30T16:32:22.462Z,22.35
2023-04-30T16:34:49.149Z,22.20
2023-04-30T16:37:15.790Z,21.96
2023-04-30T16:39:42.542Z,21.70
2023-04-30T16:42:09.358Z,21.56
2023-04-30T16:44:35.964Z,21.46
2023-04-30T16:47:02.741Z,21.35
2023-04-30T16:49:29.239Z,21.22
2023-04-30T16:51:55.831Z,21.10
2023-04-30T16:54:22.513Z,21.04
2023-04-30T16:56:49.004Z,20.99
2023-04-30T16:59:15.524Z,20.96
2023-04-30T17:01:42.184Z,20.75
2023-04-30T17:04:08.737Z,20.65
2023-04-30T17:06:35.761Z,20.59
2023-04-30T17:09:02.513Z,20.53
2023-04-30T17:11:29.147Z,20.52
2023-04-30T17:13:56.022Z,20.45
2023-04-30T17:16:22.789Z,20.39
2023-04-30T17:18:49.469Z,20.36
2023-04-30T17:21:16.118Z,20.33
2023-04-30T17:23:42.776Z,20.28
2023-04-30T17:26:09.796Z,20.24
2023-04-30T17:28:37.482Z,20.17
2023-04-30T17:31:07.119Z,20.09
2023-04-30T17:33:34.094Z,20.01
2023-04-30T17:36:00.758Z,19.91
2023-04-30T17:38:27.421Z,19.85
2023-04-30T17:40:54.293Z,19.79
2023-04-30T17:43:20.821Z,19.71
2023-04-30T17:45:47.593Z,19.66
2023-04-30T17:48:14.275Z,19.59
2023-04-30T17:50:41.266Z,19.52
2023-04-30T17:53:07.862Z,19.41
2023-04-30T17:55:34.425Z,19.30
2023-04-30T17:58:01.027Z,19.18
2023-04-30T18:00:27.550Z,19.06
2023-04-30T18:02:54.202Z,18.93
2023-04-30T18:05:20.980Z,18.77
2023-04-30T18:07:48.502Z,18.63
2023-04-30T18:10:15.183Z,18.49
2023-04-30T18:12:42.012Z,18.35
2023-04-30T18:15:08.947Z,18.20
2023-04-30T18:17:37.246Z,18.04
2023-04-30T18:20:04.545Z,17.89
2023-04-30T18:22:31.085Z,17.77
2023-04-30T18:24:57.666Z,17.65
2023-04-30T18:27:24.170Z,17.53
2023-04-30T18:29:51.636Z,17.40
2023-04-30T18:32:18.470Z,17.27
2023-04-30T18:34:45.062Z,17.14
2023-04-30T18:37:11.679Z,17.02
2023-04-30T18:39:38.210Z,16.87
2023-04-30T18:42:04.853Z,16.75
2023-04-30T18:44:32.118Z,16.61
2023-04-30T18:46:58.983Z,16.51
2023-04-30T18:49:25.586Z,16.39
2023-04-30T18:51:52.195Z,16.27
2023-04-30T18:54:18.716Z,16.16
2023-04-30T18:56:45.328Z,16.07
2023-04-30T18:59:11.898Z,16.00
2023-04-30T19:01:38.514Z,15.95
2023-04-30T19:04:05.127Z,15.91
2023-04-30T19:06:33.481Z,15.88
2023-04-30T19:09:00.080Z,15.86
2023-04-30T19:11:27.167Z,15.81
2023-04-30T19:13:53.778Z,15.76
2023-04-30T19:16:20.326Z,15.73
2023-04-30T19:18:47.044Z,15.74
2023-04-30T19:21:14.890Z,15.74
2023-04-30T19:23:41.506Z,15.71
2023-04-30T19:26:08.028Z,15.70
2023-04-30T19:28:34.572Z,15.65
2023-04-30T19:31:01.245Z,15.61
2023-04-30T19:33:28.410Z,15.61
2023-04-30T19:35:55.192Z,15.61
2023-04-30T19:38:21.974Z,15.59
2023-04-30T19:40:52.525Z,15.59
2023-04-30T19:43:20.523Z,15.54
2023-04-30T19:45:51.931Z,15.51
2023-04-30T19:48:18.556Z,15.45
2023-04-30T19:50:46.790Z,15.41
2023-04-30T19:53:14.203Z,15.34
2023-04-30T19:55:40.808Z,15.28
2023-04-30T19:58:07.636Z,15.22
2023-04-30T20:00:37.220Z,15.14
2023-04-30T20:03:05.381Z,15.07
2023-04-30T20:05:32.747Z,15.02
2023-04-30T20:07:59.804Z,14.97
2023-04-30T20:10:26.480Z,14.88
2023-04-30T20:12:53.780Z,14.83
2023-04-30T20:15:21.808Z,14.78
2023-04-30T20:17:50.190Z,14.72
2023-04-30T20:20:17.520Z,14.67
2023-04-30T20:22:44.211Z,14.61
2023-04-30T20:25:10.783Z,14.57
2023-04-30T20:27:37.313Z,14.50
2023-04-30T20:30:04.746Z,14.45
2023-04-30T20:32:31.735Z,14.40
2023-04-30T20:34:58.838Z,14.33
2023-04-30T20:37:25.555Z,14.28
2023-04-30T20:39:52.219Z,14.23
2023-04-30T20:42:19.831Z,14.20
2023-04-30T20:44:47.411Z,14.15
2023-04-30T20:47:16.939Z,14.14
2023-04-30T20:49:43.608Z,14.11
2023-04-30T20:52:12.142Z,14.07
2023-04-30T20:54:39.302Z,14.02
2023-04-30T20:57:06.027Z,13.98
2023-04-30T20:59:33.000Z,13.96
2023-04-30T21:01:59.607Z,13.94
2023-04-30T21:04:26.173Z,13.88
2023-04-30T21:06:52.676Z,13.83
2023-04-30T21:09:19.210Z,13.78
2023-04-30T21:11:45.836Z,13.73
2023-04-30T21:14:12.418Z,13.69
2023-04-30T21:16:40.666Z,13.64
2023-04-30T21:19:07.393Z,13.59
2023-04-30T21:21:34.496Z,13.52
2023-04-30T21:24:01.192Z,13.48
2023-04-30T21:26:28.183Z,13.44
2023-04-30T21:28:54.769Z,13.40
2023-04-30T21:31:21.402Z,13.37
2023-04-30T21:33:48.174Z,13.36
2023-04-30T21:36:16.434Z,13.32
2023-04-30T21:38:43.169Z,13.25
2023-04-30T21:41:14.383Z,13.22
2023-04-30T21:43:44.322Z,13.21
2023-04-30T21:46:11.142Z,13.18
2023-04-30T21:48:38.476Z,13.16
2023-04-30T21:51:16.913Z,13.14
2023-04-30T21:53:44.566Z,13.14
2023-04-30T21:56:11.961Z,13.13
2023-04-30T21:58:39.408Z,13.11
2023-04-30T22:01:06.342Z,13.11
2023-04-30T22:03:33.365Z,13.08
2023-04-30T22:06:00.788Z,13.08
2023-04-30T22:08:27.564Z,13.07
2023-04-30T22:10:58.992Z,13.05
2023-04-30T22:13:29.466Z,13.03
2023-04-30T22:15:56.592Z,13.01
2023-04-30T22:18:24.458Z,12.98
2023-04-30T22:20:52.322Z,12.97
2023-04-30T22:23:21.286Z,12.94
2023-04-30T22:25:48.231Z,12.92
2023-04-30T22:28:16.931Z,12.88
2023-04-30T22:30:43.895Z,12.84
2023-04-30T22:33:10.721Z,12.81
2023-04-30T22:35:40.408Z,12.78
2023-04-30T22:38:07.585Z,12.74
2023-04-30T22:40:38.380Z,12.72
2023-04-30T22:43:05.937Z,12.70
2023-04-30T22:45:32.805Z,12.68
2023-04-30T22:48:01.608Z,12.63
2023-04-30T22:50:30.048Z,12.62
2023-04-30T22:52:56.791Z,12.59
2023-04-30T22:55:23.421Z,12.56
2023-04-30T22:57:50.002Z,12.51
2023-04-30T23:00:19.100Z,12.48
2023-04-30T23:02:45.965Z,12.46
2023-04-30T23:05:12.944Z,12.42
2023-04-30T23:07:39.750Z,12.40
2023-04-30T23:10:06.819Z,12.37
2023-04-30T23:12:33.366Z,12.37
2023-04-30T23:14:59.955Z,12.34
2023-04-30T23:17:26.965Z,12.34
2023-04-30T23:19:54.062Z,12.33
2023-04-30T23:22:20.832Z,12.35
2023-04-30T23:24:47.488Z,12.39
2023-04-30T23:27:14.243Z,12.42
2023-04-30T23:29:40.949Z,12.47
2023-04-30T23:32:07.572Z,12.50
2023-04-30T23:34:34.437Z,12.53
2023-04-30T23:37:01.059Z,12.54
2023-04-30T23:39:27.589Z,12.56
2023-04-30T23:41:54.595Z,12.59
2023-04-30T23:44:21.713Z,12.62
2023-04-30T23:46:48.431Z,12.63
2023-04-30T23:49:16.562Z,12.65
2023-04-30T23:51:43.061Z,12.69
2023-04-30T23:54:09.555Z,12.75
2023-04-30T23:56:37.410Z,12.77
2023-04-30T23:59:05.300Z,12.79
